sensor_id;sensor_type;location;lat;lon;timestamp;pressure;altitude;pressure_sealevel;temperature;humidity
42247;BME280;27913;42.722;23.268;2023-07-31T00:04:19;94615.16;;;20.51;86.48
42247;BME280;27913;42.722;23.268;2023-07-31T00:06:45;94635.22;;;20.64;85.45
42247;BME280;27913;42.722;23.268;2023-07-31T00:09:10;94606.63;;;20.60;85.33
42247;BME280;27913;42.722;23.268;2023-07-31T00:11:35;94586.03;;;20.45;85.38
42247;BME280;27913;42.722;23.268;2023-07-31T00:14:01;94591.41;;;20.55;85.06
42247;BME280;27913;42.722;23.268;2023-07-31T00:16:26;94666.72;;;21.06;85.62
42247;BME280;27913;42.722;23.268;2023-07-31T00:18:52;94706.34;;;21.30;85.16
42247;BME280;27913;42.722;23.268;2023-07-31T00:21:18;94591.94;;;20.52;85.74
42247;BME280;27913;42.722;23.268;2023-07-31T00:23:43;94692.69;;;21.21;86.50
42247;BME280;27913;42.722;23.268;2023-07-31T00:26:08;94689.75;;;21.22;86.90
42247;BME280;27913;42.722;23.268;2023-07-31T00:28:34;94627.03;;;20.82;88.59
42247;BME280;27913;42.722;23.268;2023-07-31T00:30:59;94568.63;;;20.42;89.53
42247;BME280;27913;42.722;23.268;2023-07-31T00:33:25;94677.66;;;21.04;89.48
42247;BME280;27913;42.722;23.268;2023-07-31T00:35:50;94673.09;;;20.94;89.23
42247;BME280;27913;42.722;23.268;2023-07-31T00:38:16;94674.88;;;20.83;90.09
42247;BME280;27913;42.722;23.268;2023-07-31T00:40:41;94665.75;;;20.79;91.22
42247;BME280;27913;42.722;23.268;2023-07-31T00:43:06;94584.84;;;20.25;91.75
42247;BME280;27913;42.722;23.268;2023-07-31T00:45:32;94607.03;;;20.31;91.97
42247;BME280;27913;42.722;23.268;2023-07-31T00:47:58;94684.16;;;20.70;92.63
42247;BME280;27913;42.722;23.268;2023-07-31T00:50:24;94576.69;;;20.04;93.61
42247;BME280;27913;42.722;23.268;2023-07-31T00:52:50;94663.53;;;20.60;93.64
42247;BME280;27913;42.722;23.268;2023-07-31T00:55:16;94620.31;;;20.20;94.41
42247;BME280;27913;42.722;23.268;2023-07-31T00:57:42;94635.59;;;20.30;94.95
42247;BME280;27913;42.722;23.268;2023-07-31T01:00:09;94539.94;;;19.73;95.62
42247;BME280;27913;42.722;23.268;2023-07-31T01:02:35;94574.00;;;19.99;95.71
42247;BME280;27913;42.722;23.268;2023-07-31T01:05:02;94601.06;;;20.13;95.72
42247;BME280;27913;42.722;23.268;2023-07-31T01:07:39;94654.69;;;20.55;95.45
42247;BME280;27913;42.722;23.268;2023-07-31T01:10:13;94658.44;;;20.54;95.75
42247;BME280;27913;42.722;23.268;2023-07-31T01:12:41;94677.88;;;20.49;95.78
42247;BME280;27913;42.722;23.268;2023-07-31T01:15:08;94573.22;;;20.03;95.59
42247;BME280;27913;42.722;23.268;2023-07-31T01:17:41;94649.06;;;20.51;95.71
42247;BME280;27913;42.722;23.268;2023-07-31T01:20:26;94540.22;;;19.77;96.09
42247;BME280;27913;42.722;23.268;2023-07-31T01:28:22;94590.88;;;20.05;97.33
42247;BME280;27913;42.722;23.268;2023-07-31T01:30:50;94489.31;;;19.40;97.32
42247;BME280;27913;42.722;23.268;2023-07-31T01:33:16;94557.59;;;19.79;97.85
42247;BME280;27913;42.722;23.268;2023-07-31T01:35:45;94608.97;;;20.02;98.42
42247;BME280;27913;42.722;23.268;2023-07-31T01:38:11;94585.44;;;19.94;98.36
42247;BME280;27913;42.722;23.268;2023-07-31T01:40:37;94640.09;;;20.24;98.87
42247;BME280;27913;42.722;23.268;2023-07-31T01:43:02;94633.34;;;20.11;99.11
42247;BME280;27913;42.722;23.268;2023-07-31T01:45:28;94577.91;;;19.86;99.30
42247;BME280;27913;42.722;23.268;2023-07-31T01:47:53;94635.75;;;20.13;99.82
42247;BME280;27913;42.722;23.268;2023-07-31T01:50:19;94648.59;;;20.16;100.00
42247;BME280;27913;42.722;23.268;2023-07-31T01:52:44;94641.91;;;20.13;100.00
42247;BME280;27913;42.722;23.268;2023-07-31T01:55:10;94658.38;;;20.05;100.00
42247;BME280;27913;42.722;23.268;2023-07-31T01:57:36;94588.41;;;19.65;100.00
42247;BME280;27913;42.722;23.268;2023-07-31T02:00:03;94643.88;;;19.96;100.00
42247;BME280;27913;42.722;23.268;2023-07-31T02:02:28;94659.91;;;19.96;100.00
42247;BME280;27913;42.722;23.268;2023-07-31T02:04:54;94653.50;;;19.97;100.00
42247;BME280;27913;42.722;23.268;2023-07-31T02:07:19;94599.94;;;19.71;100.00
42247;BME280;27913;42.722;23.268;2023-07-31T02:09:45;94658.94;;;20.07;100.00
42247;BME280;27913;42.722;23.268;2023-07-31T02:12:12;94666.97;;;20.12;100.00
42247;BME280;27913;42.722;23.268;2023-07-31T02:14:39;94615.25;;;19.86;100.00
42247;BME280;27913;42.722;23.268;2023-07-31T02:17:05;94587.44;;;19.76;100.00
42247;BME280;27913;42.722;23.268;2023-07-31T02:19:31;94660.34;;;20.15;100.00
42247;BME280;27913;42.722;23.268;2023-07-31T02:21:56;94663.28;;;20.19;100.00
42247;BME280;27913;42.722;23.268;2023-07-31T02:24:22;94606.59;;;19.73;100.00
42247;BME280;27913;42.722;23.268;2023-07-31T02:26:47;94653.44;;;20.24;100.00
42247;BME280;27913;42.722;23.268;2023-07-31T02:29:12;94647.34;;;20.29;100.00
42247;BME280;27913;42.722;23.268;2023-07-31T02:31:38;94652.72;;;20.34;100.00
42247;BME280;27913;42.722;23.268;2023-07-31T02:34:03;94644.22;;;20.43;100.00
42247;BME280;27913;42.722;23.268;2023-07-31T02:36:29;94517.19;;;19.60;100.00
42247;BME280;27913;42.722;23.268;2023-07-31T02:38:54;94642.13;;;20.50;100.00
42247;BME280;27913;42.722;23.268;2023-07-31T02:41:20;94620.97;;;20.38;100.00
42247;BME280;27913;42.722;23.268;2023-07-31T02:43:46;94652.81;;;20.50;100.00
42247;BME280;27913;42.722;23.268;2023-07-31T02:46:11;94557.63;;;19.85;100.00
42247;BME280;27913;42.722;23.268;2023-07-31T02:48:36;94656.00;;;20.47;100.00
42247;BME280;27913;42.722;23.268;2023-07-31T02:51:02;94657.34;;;20.49;100.00
42247;BME280;27913;42.722;23.268;2023-07-31T02:53:28;94673.66;;;20.53;100.00
42247;BME280;27913;42.722;23.268;2023-07-31T02:55:53;94632.91;;;20.25;100.00
42247;BME280;27913;42.722;23.268;2023-07-31T02:58:18;94667.81;;;20.61;100.00
42247;BME280;27913;42.722;23.268;2023-07-31T03:00:44;94668.38;;;20.69;99.98
42247;BME280;27913;42.722;23.268;2023-07-31T03:03:10;94561.53;;;20.05;99.02
42247;BME280;27913;42.722;23.268;2023-07-31T03:05:35;94683.69;;;20.84;98.47
42247;BME280;27913;42.722;23.268;2023-07-31T03:08:01;94617.81;;;20.46;98.58
42247;BME280;27913;42.722;23.268;2023-07-31T03:10:27;94569.28;;;20.06;98.65
42247;BME280;27913;42.722;23.268;2023-07-31T03:12:52;94613.97;;;20.32;99.54
42247;BME280;27913;42.722;23.268;2023-07-31T03:15:18;94669.19;;;20.69;99.50
42247;BME280;27913;42.722;23.268;2023-07-31T03:17:43;94685.53;;;20.78;99.25
42247;BME280;27913;42.722;23.268;2023-07-31T03:20:10;94611.31;;;20.32;99.48
42247;BME280;27913;42.722;23.268;2023-07-31T03:22:35;94692.19;;;20.75;99.73
42247;BME280;27913;42.722;23.268;2023-07-31T03:25:02;94675.63;;;20.73;99.55
42247;BME280;27913;42.722;23.268;2023-07-31T03:27:28;94679.88;;;20.69;99.58
42247;BME280;27913;42.722;23.268;2023-07-31T03:29:53;94656.03;;;20.52;99.31
42247;BME280;27913;42.722;23.268;2023-07-31T03:32:18;94612.25;;;20.10;99.01
42247;BME280;27913;42.722;23.268;2023-07-31T03:34:44;94539.38;;;19.66;98.71
42247;BME280;27913;42.722;23.268;2023-07-31T03:37:10;94692.91;;;20.60;98.86
42247;BME280;27913;42.722;23.268;2023-07-31T03:39:35;94653.50;;;20.35;99.02
42247;BME280;27913;42.722;23.268;2023-07-31T03:42:01;94623.69;;;20.05;98.75
42247;BME280;27913;42.722;23.268;2023-07-31T03:44:26;94552.56;;;19.50;98.93
42247;BME280;27913;42.722;23.268;2023-07-31T03:46:52;94628.91;;;19.95;99.47
42247;BME280;27913;42.722;23.268;2023-07-31T03:49:18;94709.63;;;20.45;99.93
42247;BME280;27913;42.722;23.268;2023-07-31T03:51:43;94671.31;;;20.19;99.94
42247;BME280;27913;42.722;23.268;2023-07-31T03:54:08;94661.41;;;20.19;100.00
42247;BME280;27913;42.722;23.268;2023-07-31T03:56:34;94707.28;;;20.54;99.43
42247;BME280;27913;42.722;23.268;2023-07-31T03:59:01;94713.44;;;20.55;99.61
42247;BME280;27913;42.722;23.268;2023-07-31T04:01:26;94487.16;;;19.04;99.22
42247;BME280;27913;42.722;23.268;2023-07-31T04:03:52;94716.63;;;20.51;99.42
42247;BME280;27913;42.722;23.268;2023-07-31T04:06:17;94608.28;;;19.79;99.01
42247;BME280;27913;42.722;23.268;2023-07-31T04:08:44;94688.19;;;20.30;99.13
42247;BME280;27913;42.722;23.268;2023-07-31T04:11:10;94671.00;;;20.15;99.10
42247;BME280;27913;42.722;23.268;2023-07-31T04:13:36;94677.97;;;20.21;98.72
42247;BME280;27913;42.722;23.268;2023-07-31T04:16:02;94668.13;;;20.22;98.69
42247;BME280;27913;42.722;23.268;2023-07-31T04:18:27;94712.41;;;20.56;98.38
42247;BME280;27913;42.722;23.268;2023-07-31T04:20:53;94724.41;;;20.58;98.46
42247;BME280;27913;42.722;23.268;2023-07-31T04:23:18;94717.78;;;20.61;98.20
42247;BME280;27913;42.722;23.268;2023-07-31T04:25:44;94713.75;;;20.58;98.06
42247;BME280;27913;42.722;23.268;2023-07-31T04:28:11;94576.41;;;19.62;98.10
42247;BME280;27913;42.722;23.268;2023-07-31T04:30:36;94643.63;;;19.97;98.31
42247;BME280;27913;42.722;23.268;2023-07-31T04:33:02;94736.16;;;20.52;98.09
42247;BME280;27913;42.722;23.268;2023-07-31T04:35:27;94731.63;;;20.58;98.30
42247;BME280;27913;42.722;23.268;2023-07-31T04:37:53;94724.69;;;20.57;97.47
42247;BME280;27913;42.722;23.268;2023-07-31T04:40:18;94735.06;;;20.53;98.07
42247;BME280;27913;42.722;23.268;2023-07-31T04:42:44;94583.25;;;19.53;97.15
42247;BME280;27913;42.722;23.268;2023-07-31T04:45:09;94731.13;;;20.61;97.65
42247;BME280;27913;42.722;23.268;2023-07-31T04:47:35;94722.31;;;20.60;97.23
42247;BME280;27913;42.722;23.268;2023-07-31T04:50:00;94643.75;;;20.13;97.18
42247;BME280;27913;42.722;23.268;2023-07-31T04:52:26;94691.44;;;20.37;97.51
42247;BME280;27913;42.722;23.268;2023-07-31T04:54:51;94678.59;;;20.34;96.92
42247;BME280;27913;42.722;23.268;2023-07-31T04:57:17;94713.59;;;20.81;95.82
42247;BME280;27913;42.722;23.268;2023-07-31T04:59:42;94694.06;;;20.75;95.28
42247;BME280;27913;42.722;23.268;2023-07-31T05:02:08;94705.47;;;21.03;94.73
42247;BME280;27913;42.722;23.268;2023-07-31T05:04:34;94629.88;;;20.59;94.19
42247;BME280;27913;42.722;23.268;2023-07-31T05:06:59;94713.31;;;21.31;92.60
42247;BME280;27913;42.722;23.268;2023-07-31T05:09:25;94680.63;;;21.13;91.79
42247;BME280;27913;42.722;23.268;2023-07-31T05:11:50;94714.91;;;21.32;92.08
42247;BME280;27913;42.722;23.268;2023-07-31T05:14:16;94669.06;;;20.97;92.26
42247;BME280;27913;42.722;23.268;2023-07-31T05:16:41;94704.47;;;21.30;92.72
42247;BME280;27913;42.722;23.268;2023-07-31T05:19:07;94717.06;;;21.35;92.02
42247;BME280;27913;42.722;23.268;2023-07-31T05:21:32;94706.59;;;21.28;92.02
42247;BME280;27913;42.722;23.268;2023-07-31T05:23:58;94719.22;;;21.33;92.45
42247;BME280;27913;42.722;23.268;2023-07-31T05:26:23;94706.88;;;21.27;91.63
42247;BME280;27913;42.722;23.268;2023-07-31T05:28:49;94650.91;;;20.94;90.92
42247;BME280;27913;42.722;23.268;2023-07-31T05:31:14;94668.09;;;21.19;90.25
42247;BME280;27913;42.722;23.268;2023-07-31T05:33:40;94723.00;;;21.58;90.03
42247;BME280;27913;42.722;23.268;2023-07-31T05:36:05;94725.19;;;21.61;87.40
42247;BME280;27913;42.722;23.268;2023-07-31T05:38:31;94727.84;;;21.61;86.09
42247;BME280;27913;42.722;23.268;2023-07-31T05:40:56;94663.81;;;21.28;86.79
42247;BME280;27913;42.722;23.268;2023-07-31T05:43:22;94736.94;;;21.70;85.21
42247;BME280;27913;42.722;23.268;2023-07-31T05:45:47;94666.47;;;21.12;85.00
42247;BME280;27913;42.722;23.268;2023-07-31T05:48:13;94724.88;;;21.52;85.29
42247;BME280;27913;42.722;23.268;2023-07-31T05:50:38;94674.53;;;21.33;85.35
42247;BME280;27913;42.722;23.268;2023-07-31T05:53:05;94715.56;;;21.76;84.61
42247;BME280;27913;42.722;23.268;2023-07-31T05:55:31;94721.97;;;21.75;84.66
42247;BME280;27913;42.722;23.268;2023-07-31T05:57:57;94666.53;;;21.44;83.64
42247;BME280;27913;42.722;23.268;2023-07-31T06:02:48;94739.69;;;22.12;81.27
42247;BME280;27913;42.722;23.268;2023-07-31T06:05:14;94715.09;;;22.00;80.66
42247;BME280;27913;42.722;23.268;2023-07-31T06:07:41;94714.56;;;22.13;80.52
42247;BME280;27913;42.722;23.268;2023-07-31T06:10:07;94707.56;;;22.12;78.75
42247;BME280;27913;42.722;23.268;2023-07-31T06:12:34;94646.53;;;21.78;78.59
42247;BME280;27913;42.722;23.268;2023-07-31T06:15:00;94725.25;;;22.29;78.72
42247;BME280;27913;42.722;23.268;2023-07-31T06:17:25;94687.25;;;22.01;77.94
42247;BME280;27913;42.722;23.268;2023-07-31T06:19:51;94720.19;;;22.22;78.15
42247;BME280;27913;42.722;23.268;2023-07-31T06:22:17;94754.97;;;22.32;78.13
42247;BME280;27913;42.722;23.268;2023-07-31T06:24:42;94742.41;;;22.38;77.96
42247;BME280;27913;42.722;23.268;2023-07-31T06:27:09;94740.00;;;22.47;77.25
42247;BME280;27913;42.722;23.268;2023-07-31T06:29:35;94676.25;;;21.97;77.47
42247;BME280;27913;42.722;23.268;2023-07-31T06:32:00;94743.47;;;22.37;77.73
42247;BME280;27913;42.722;23.268;2023-07-31T06:34:26;94743.44;;;22.48;77.16
42247;BME280;27913;42.722;23.268;2023-07-31T06:36:51;94742.13;;;22.61;76.90
42247;BME280;27913;42.722;23.268;2023-07-31T06:39:17;94697.13;;;22.42;76.13
42247;BME280;27913;42.722;23.268;2023-07-31T06:41:43;94651.63;;;22.16;74.84
42247;BME280;27913;42.722;23.268;2023-07-31T06:44:09;94705.97;;;22.16;76.04
42247;BME280;27913;42.722;23.268;2023-07-31T06:46:35;94756.59;;;22.39;75.78
42247;BME280;27913;42.722;23.268;2023-07-31T06:49:00;94698.47;;;22.34;75.14
42247;BME280;27913;42.722;23.268;2023-07-31T06:51:26;94734.06;;;22.76;73.38
42247;BME280;27913;42.722;23.268;2023-07-31T06:53:51;94676.50;;;22.42;73.56
42247;BME280;27913;42.722;23.268;2023-07-31T06:56:16;94747.97;;;22.89;72.86
42247;BME280;27913;42.722;23.268;2023-07-31T06:58:42;94685.03;;;22.55;73.40
42247;BME280;27913;42.722;23.268;2023-07-31T07:01:08;94689.31;;;22.51;72.70
42247;BME280;27913;42.722;23.268;2023-07-31T07:03:33;94739.19;;;22.20;74.79
42247;BME280;27913;42.722;23.268;2023-07-31T07:05:59;94705.69;;;21.81;75.06
42247;BME280;27913;42.722;23.268;2023-07-31T07:08:25;94691.47;;;21.76;75.74
42247;BME280;27913;42.722;23.268;2023-07-31T07:10:50;94748.00;;;22.05;75.72
42247;BME280;27913;42.722;23.268;2023-07-31T07:13:16;94746.13;;;22.11;74.86
42247;BME280;27913;42.722;23.268;2023-07-31T07:15:47;94726.31;;;22.17;75.69
42247;BME280;27913;42.722;23.268;2023-07-31T07:18:12;94751.50;;;22.22;75.84
42247;BME280;27913;42.722;23.268;2023-07-31T07:20:39;94656.41;;;21.62;75.39
42247;BME280;27913;42.722;23.268;2023-07-31T07:23:05;94604.44;;;21.21;75.38
42247;BME280;27913;42.722;23.268;2023-07-31T07:25:30;94678.34;;;21.69;75.64
42247;BME280;27913;42.722;23.268;2023-07-31T07:27:55;94711.88;;;22.13;75.76
42247;BME280;27913;42.722;23.268;2023-07-31T07:30:21;94730.34;;;22.15;74.62
42247;BME280;27913;42.722;23.268;2023-07-31T07:32:46;94700.91;;;21.94;75.15
42247;BME280;27913;42.722;23.268;2023-07-31T07:35:12;94725.25;;;22.24;75.45
42247;BME280;27913;42.722;23.268;2023-07-31T07:37:37;94736.78;;;22.29;73.63
42247;BME280;27913;42.722;23.268;2023-07-31T07:40:03;94686.16;;;22.07;73.49
42247;BME280;27913;42.722;23.268;2023-07-31T07:42:28;94714.53;;;22.29;73.84
42247;BME280;27913;42.722;23.268;2023-07-31T07:44:55;94686.16;;;22.02;73.48
42247;BME280;27913;42.722;23.268;2023-07-31T07:47:20;94733.81;;;22.47;73.06
42247;BME280;27913;42.722;23.268;2023-07-31T07:49:45;94583.38;;;21.61;72.77
42247;BME280;27913;42.722;23.268;2023-07-31T07:52:11;94741.28;;;22.60;72.79
42247;BME280;27913;42.722;23.268;2023-07-31T07:54:37;94730.03;;;22.74;72.09
42247;BME280;27913;42.722;23.268;2023-07-31T07:57:02;94660.97;;;22.29;72.64
42247;BME280;27913;42.722;23.268;2023-07-31T07:59:28;94745.31;;;22.84;70.84
42247;BME280;27913;42.722;23.268;2023-07-31T08:01:53;94763.28;;;22.83;71.23
42247;BME280;27913;42.722;23.268;2023-07-31T08:04:19;94743.94;;;22.91;68.94
42247;BME280;27913;42.722;23.268;2023-07-31T08:06:44;94695.75;;;22.60;69.01
42247;BME280;27913;42.722;23.268;2023-07-31T08:09:10;94749.03;;;22.88;67.91
42247;BME280;27913;42.722;23.268;2023-07-31T08:11:35;94713.97;;;22.68;67.53
42247;BME280;27913;42.722;23.268;2023-07-31T08:14:01;94539.78;;;21.55;67.94
42247;BME280;27913;42.722;23.268;2023-07-31T08:16:27;94587.13;;;22.02;68.17
42247;BME280;27913;42.722;23.268;2023-07-31T08:18:52;94741.47;;;23.11;68.52
42247;BME280;27913;42.722;23.268;2023-07-31T08:21:18;94752.44;;;23.20;67.09
42247;BME280;27913;42.722;23.268;2023-07-31T08:23:43;94740.06;;;23.29;67.08
42247;BME280;27913;42.722;23.268;2023-07-31T08:26:17;94744.31;;;23.46;65.95
42247;BME280;27913;42.722;23.268;2023-07-31T08:28:43;94696.94;;;23.20;65.90
42247;BME280;27913;42.722;23.268;2023-07-31T08:31:08;94746.44;;;23.54;63.90
42247;BME280;27913;42.722;23.268;2023-07-31T08:33:34;94697.97;;;23.29;63.66
42247;BME280;27913;42.722;23.268;2023-07-31T08:35:59;94743.13;;;23.73;64.16
42247;BME280;27913;42.722;23.268;2023-07-31T08:38:26;94732.69;;;23.66;63.24
42247;BME280;27913;42.722;23.268;2023-07-31T08:40:51;94744.81;;;23.53;63.55
42247;BME280;27913;42.722;23.268;2023-07-31T08:43:18;94731.19;;;23.44;64.18
42247;BME280;27913;42.722;23.268;2023-07-31T08:45:46;94757.19;;;23.54;64.02
42247;BME280;27913;42.722;23.268;2023-07-31T08:48:12;94736.25;;;23.51;63.79
42247;BME280;27913;42.722;23.268;2023-07-31T08:50:38;94731.66;;;23.57;64.04
42247;BME280;27913;42.722;23.268;2023-07-31T08:53:04;94687.09;;;23.61;62.61
42247;BME280;27913;42.722;23.268;2023-07-31T08:55:30;94742.34;;;24.07;61.60
42247;BME280;27913;42.722;23.268;2023-07-31T08:57:57;94744.22;;;24.12;61.86
42247;BME280;27913;42.722;23.268;2023-07-31T09:00:23;94697.06;;;23.55;62.62
42247;BME280;27913;42.722;23.268;2023-07-31T09:03:00;94735.84;;;23.79;63.27
42247;BME280;27913;42.722;23.268;2023-07-31T09:05:31;94639.19;;;23.44;61.55
42247;BME280;27913;42.722;23.268;2023-07-31T09:07:57;94732.03;;;24.25;60.83
42247;BME280;27913;42.722;23.268;2023-07-31T09:10:23;94688.19;;;24.00;61.01
42247;BME280;27913;42.722;23.268;2023-07-31T09:12:51;94609.50;;;23.70;60.40
42247;BME280;27913;42.722;23.268;2023-07-31T09:15:17;94522.97;;;23.08;60.95
42247;BME280;27913;42.722;23.268;2023-07-31T09:17:42;94679.00;;;24.06;60.61
42247;BME280;27913;42.722;23.268;2023-07-31T09:20:16;94660.09;;;23.87;61.92
42247;BME280;27913;42.722;23.268;2023-07-31T09:22:42;94719.19;;;24.22;61.81
42247;BME280;27913;42.722;23.268;2023-07-31T09:27:52;94727.25;;;24.17;61.25
42247;BME280;27913;42.722;23.268;2023-07-31T09:30:18;94714.56;;;24.28;61.91
42247;BME280;27913;42.722;23.268;2023-07-31T09:32:45;94715.69;;;24.21;60.39
42247;BME280;27913;42.722;23.268;2023-07-31T09:35:20;94678.09;;;24.21;59.34
42247;BME280;27913;42.722;23.268;2023-07-31T09:37:55;94713.59;;;24.48;59.55
42247;BME280;27913;42.722;23.268;2023-07-31T09:40:33;94653.72;;;24.07;59.11
42247;BME280;27913;42.722;23.268;2023-07-31T09:43:04;94703.91;;;24.77;58.67
42247;BME280;27913;42.722;23.268;2023-07-31T09:45:34;94568.78;;;24.17;56.64
42247;BME280;27913;42.722;23.268;2023-07-31T09:48:00;94516.09;;;23.96;56.43
42247;BME280;27913;42.722;23.268;2023-07-31T09:50:25;94491.94;;;23.96;56.36
42247;BME280;27913;42.722;23.268;2023-07-31T09:52:51;94702.13;;;25.40;55.69
42247;BME280;27913;42.722;23.268;2023-07-31T09:55:18;94706.84;;;25.29;55.76
42247;BME280;27913;42.722;23.268;2023-07-31T09:57:46;94615.03;;;24.43;56.02
42247;BME280;27913;42.722;23.268;2023-07-31T10:00:13;94698.75;;;24.80;56.94
42247;BME280;27913;42.722;23.268;2023-07-31T10:02:39;94689.13;;;25.04;55.17
42247;BME280;27913;42.722;23.268;2023-07-31T10:05:06;94641.56;;;24.99;55.10
42247;BME280;27913;42.722;23.268;2023-07-31T10:07:36;94703.34;;;25.48;54.45
42247;BME280;27913;42.722;23.268;2023-07-31T10:10:04;94650.75;;;25.17;53.82
42247;BME280;27913;42.722;23.268;2023-07-31T10:12:32;94696.97;;;25.44;53.75
42247;BME280;27913;42.722;23.268;2023-07-31T10:14:59;94637.69;;;25.11;53.99
42247;BME280;27913;42.722;23.268;2023-07-31T10:17:25;94684.03;;;25.65;53.58
42247;BME280;27913;42.722;23.268;2023-07-31T10:19:52;94510.78;;;24.65;53.82
42247;BME280;27913;42.722;23.268;2023-07-31T10:22:19;94614.03;;;25.46;52.62
42247;BME280;27913;42.722;23.268;2023-07-31T10:24:46;94599.88;;;25.40;52.69
42247;BME280;27913;42.722;23.268;2023-07-31T10:27:12;94674.88;;;25.86;52.57
42247;BME280;27913;42.722;23.268;2023-07-31T10:29:38;94677.56;;;25.86;51.49
42247;BME280;27913;42.722;23.268;2023-07-31T10:32:06;94661.66;;;25.70;51.65
42247;BME280;27913;42.722;23.268;2023-07-31T10:34:35;94636.91;;;25.68;51.79
42247;BME280;27913;42.722;23.268;2023-07-31T10:40:19;94541.56;;;25.16;50.32
42247;BME280;27913;42.722;23.268;2023-07-31T10:42:53;94602.72;;;25.49;51.45
42247;BME280;27913;42.722;23.268;2023-07-31T10:45:42;94660.59;;;26.18;50.84
42247;BME280;27913;42.722;23.268;2023-07-31T10:48:07;94672.09;;;25.91;49.41
42247;BME280;27913;42.722;23.268;2023-07-31T10:50:38;94668.75;;;25.80;50.54
42247;BME280;27913;42.722;23.268;2023-07-31T10:53:04;94672.44;;;26.03;49.32
42247;BME280;27913;42.722;23.268;2023-07-31T10:55:39;94610.91;;;25.77;48.92
42247;BME280;27913;42.722;23.268;2023-07-31T10:58:08;94675.63;;;25.72;49.11
42247;BME280;27913;42.722;23.268;2023-07-31T11:00:34;94463.31;;;24.11;49.74
42247;BME280;27913;42.722;23.268;2023-07-31T11:03:02;94625.97;;;25.20;50.44
42247;BME280;27913;42.722;23.268;2023-07-31T11:10:39;94480.59;;;24.92;48.81
42247;BME280;27913;42.722;23.268;2023-07-31T11:13:05;94649.63;;;26.15;47.95
42247;BME280;27913;42.722;23.268;2023-07-31T11:15:30;94661.88;;;26.07;47.43
42247;BME280;27913;42.722;23.268;2023-07-31T11:17:56;94544.91;;;25.27;48.12
42247;BME280;27913;42.722;23.268;2023-07-31T11:20:27;94656.22;;;25.89;47.01
42247;BME280;27913;42.722;23.268;2023-07-31T11:22:52;94655.19;;;26.04;46.71
42247;BME280;27913;42.722;23.268;2023-07-31T11:25:18;94639.22;;;26.41;45.73
42247;BME280;27913;42.722;23.268;2023-07-31T11:27:43;94662.03;;;26.77;45.07
42247;BME280;27913;42.722;23.268;2023-07-31T11:30:10;94658.31;;;27.01;46.67
42247;BME280;27913;42.722;23.268;2023-07-31T11:32:37;94498.75;;;25.87;45.98
42247;BME280;27913;42.722;23.268;2023-07-31T11:35:03;94604.00;;;26.52;46.38
42247;BME280;27913;42.722;23.268;2023-07-31T11:37:42;94549.06;;;26.05;46.24
42247;BME280;27913;42.722;23.268;2023-07-31T11:40:08;94562.34;;;26.16;46.62
42247;BME280;27913;42.722;23.268;2023-07-31T11:42:37;94642.97;;;26.88;46.29
42247;BME280;27913;42.722;23.268;2023-07-31T11:45:07;94535.00;;;26.23;45.83
42247;BME280;27913;42.722;23.268;2023-07-31T11:47:33;94642.97;;;26.88;45.98
42247;BME280;27913;42.722;23.268;2023-07-31T11:50:03;94510.44;;;25.96;46.39
42247;BME280;27913;42.722;23.268;2023-07-31T11:52:32;94608.50;;;26.71;46.94
42247;BME280;27913;42.722;23.268;2023-07-31T11:54:59;94572.16;;;26.68;47.29
42247;BME280;27913;42.722;23.268;2023-07-31T11:57:25;94651.13;;;27.25;46.59
42247;BME280;27913;42.722;23.268;2023-07-31T11:59:51;94598.16;;;27.15;46.53
42247;BME280;27913;42.722;23.268;2023-07-31T12:02:18;94549.63;;;26.87;47.13
42247;BME280;27913;42.722;23.268;2023-07-31T12:04:44;94528.44;;;26.94;46.17
42247;BME280;27913;42.722;23.268;2023-07-31T12:07:10;94491.47;;;26.72;44.16
42247;BME280;27913;42.722;23.268;2023-07-31T12:09:37;94599.38;;;27.23;44.58
42247;BME280;27913;42.722;23.268;2023-07-31T12:12:08;94634.22;;;27.33;44.81
42247;BME280;27913;42.722;23.268;2023-07-31T12:14:34;94617.38;;;27.50;44.20
42247;BME280;27913;42.722;23.268;2023-07-31T12:17:03;94497.66;;;26.72;43.08
42247;BME280;27913;42.722;23.268;2023-07-31T12:19:29;94591.31;;;27.46;42.68
42247;BME280;27913;42.722;23.268;2023-07-31T12:21:56;94599.19;;;27.79;42.06
42247;BME280;27913;42.722;23.268;2023-07-31T12:24:22;94520.31;;;27.22;41.87
42247;BME280;27913;42.722;23.268;2023-07-31T12:26:48;94622.00;;;27.36;42.60
42247;BME280;27913;42.722;23.268;2023-07-31T12:29:14;94596.66;;;27.23;42.31
42247;BME280;27913;42.722;23.268;2023-07-31T12:31:43;94578.66;;;27.55;41.71
42247;BME280;27913;42.722;23.268;2023-07-31T12:34:19;94569.22;;;27.90;41.28
42247;BME280;27913;42.722;23.268;2023-07-31T12:36:46;94574.59;;;28.13;40.91
42247;BME280;27913;42.722;23.268;2023-07-31T12:39:14;94578.91;;;28.45;41.14
42247;BME280;27913;42.722;23.268;2023-07-31T12:41:40;94509.03;;;27.98;40.83
42247;BME280;27913;42.722;23.268;2023-07-31T12:44:05;94570.44;;;27.60;41.68
42247;BME280;27913;42.722;23.268;2023-07-31T12:46:31;94612.03;;;27.73;41.75
42247;BME280;27913;42.722;23.268;2023-07-31T12:48:56;94613.50;;;27.66;42.26
42247;BME280;27913;42.722;23.268;2023-07-31T12:51:22;94610.03;;;27.65;42.85
42247;BME280;27913;42.722;23.268;2023-07-31T12:53:47;94617.13;;;27.24;44.45
42247;BME280;27913;42.722;23.268;2023-07-31T12:56:13;94607.69;;;27.49;43.38
42247;BME280;27913;42.722;23.268;2023-07-31T12:58:38;94611.47;;;27.85;41.51
42247;BME280;27913;42.722;23.268;2023-07-31T13:01:04;94603.41;;;27.71;41.36
42247;BME280;27913;42.722;23.268;2023-07-31T13:03:31;94598.66;;;28.23;40.59
42247;BME280;27913;42.722;23.268;2023-07-31T13:05:56;94563.38;;;27.96;40.74
42247;BME280;27913;42.722;23.268;2023-07-31T13:08:22;94590.72;;;27.95;40.87